createdAt,value
2018-04-22T00:00:06.219Z,26.20
2018-04-22T00:02:34.644Z,24.63
2018-04-22T00:05:03.019Z,28.73
2018-04-22T00:07:31.419Z,26.70
2018-04-22T00:09:59.816Z,27.80
2018-04-22T00:12:28.990Z,27.57
2018-04-22T00:14:57.376Z,25.83
2018-04-22T00:17:25.761Z,22.50
2018-04-22T00:19:54.154Z,23.20
2018-04-22T00:22:22.590Z,21.17
2018-04-22T00:24:51.063Z,22.00
2018-04-22T00:27:19.468Z,22.83
2018-04-22T00:29:47.866Z,21.83
2018-04-22T00:32:16.273Z,23.53
2018-04-22T00:34:44.728Z,22.20
2018-04-22T00:37:13.125Z,24.03
2018-04-22T00:39:41.538Z,21.67
2018-04-22T00:42:10.700Z,21.57
2018-04-22T00:44:39.854Z,23.93
2018-04-22T00:47:08.247Z,23.13
2018-04-22T00:49:36.629Z,25.37
2018-04-22T00:52:05.019Z,29.90
2018-04-22T00:54:33.405Z,27.23
2018-04-22T00:57:01.820Z,30.60
2018-04-22T00:59:30.206Z,34.90
2018-04-22T01:01:58.597Z,32.73
2018-04-22T01:04:26.996Z,30.90
2018-04-22T01:06:55.402Z,32.63
2018-04-22T01:09:23.812Z,30.00
2018-04-22T01:11:52.194Z,28.47
2018-04-22T01:14:20.607Z,30.27
2018-04-22T01:16:49.015Z,31.53
2018-04-22T01:19:17.435Z,54.37
2018-04-22T01:21:45.821Z,27.33
2018-04-22T01:24:14.205Z,29.30
2018-04-22T01:26:42.697Z,36.07
2018-04-22T01:29:11.082Z,27.60
2018-04-22T01:31:39.472Z,28.80
2018-04-22T01:34:07.884Z,28.90
2018-04-22T01:36:36.273Z,36.27
2018-04-22T01:39:04.678Z,28.23
2018-04-22T01:41:33.837Z,31.83
2018-04-22T01:44:02.234Z,31.60
2018-04-22T01:46:30.645Z,31.27
2018-04-22T01:48:59.814Z,31.43
2018-04-22T01:51:28.259Z,31.93
2018-04-22T01:53:56.661Z,31.43
2018-04-22T01:56:25.046Z,31.73
2018-04-22T01:58:53.449Z,31.23
2018-04-22T02:01:21.878Z,31.60
2018-04-22T02:03:51.057Z,35.50
2018-04-22T02:06:19.486Z,35.43
2018-04-22T02:08:47.912Z,37.03
2018-04-22T02:11:16.452Z,35.43
2018-04-22T02:13:44.864Z,33.37
2018-04-22T02:16:13.262Z,31.33
2018-04-22T02:18:41.652Z,33.80
2018-04-22T02:21:10.037Z,33.27
2018-04-22T02:23:38.491Z,31.53
2018-04-22T02:26:06.905Z,31.77
2018-04-22T02:28:35.347Z,33.10
2018-04-22T02:31:03.742Z,30.97
2018-04-22T02:33:32.128Z,27.60
2018-04-22T02:36:00.688Z,30.03
2018-04-22T02:38:29.143Z,27.90
2018-04-22T02:40:58.323Z,33.10
2018-04-22T02:43:26.706Z,28.47
2018-04-22T02:45:55.118Z,27.03
2018-04-22T02:48:24.279Z,27.60
2018-04-22T02:50:52.680Z,28.50
2018-04-22T02:53:21.091Z,29.40
2018-04-22T02:55:49.501Z,28.33
2018-04-22T02:58:18.018Z,27.33
2018-04-22T03:00:46.471Z,27.27
2018-04-22T03:03:14.865Z,31.40
2018-04-22T03:05:44.203Z,27.40
2018-04-22T03:08:12.602Z,27.97
2018-04-22T03:10:41.787Z,25.60
2018-04-22T03:13:10.174Z,28.27
2018-04-22T03:15:38.568Z,26.97
2018-04-22T03:18:07.734Z,31.53
2018-04-22T03:20:36.134Z,25.47
2018-04-22T03:23:04.565Z,29.50
2018-04-22T03:25:32.960Z,26.77
2018-04-22T03:28:01.387Z,26.57
2018-04-22T03:30:29.849Z,27.67
2018-04-22T03:32:58.237Z,26.47
2018-04-22T03:35:26.650Z,29.17
2018-04-22T03:37:55.801Z,29.83
2018-04-22T03:40:24.215Z,30.40
2018-04-22T03:42:52.602Z,28.70
2018-04-22T03:45:20.991Z,29.00
2018-04-22T03:47:49.386Z,27.07
2018-04-22T03:50:18.595Z,27.50
2018-04-22T03:52:47.778Z,27.43
2018-04-22T03:55:16.175Z,28.00
2018-04-22T03:57:44.794Z,29.60
2018-04-22T04:00:13.209Z,32.00
2018-04-22T04:02:41.613Z,28.63
2018-04-22T04:05:10.022Z,27.50
2018-04-22T04:07:39.176Z,27.50
2018-04-22T04:10:07.561Z,28.97
2018-04-22T04:12:35.954Z,28.87
2018-04-22T04:15:04.369Z,27.37
2018-04-22T04:17:33.519Z,29.30
2018-04-22T04:20:19.522Z,30.53
2018-04-22T04:22:47.894Z,29.53
2018-04-22T04:25:45.558Z,32.03
2018-04-22T04:28:13.968Z,26.93
2018-04-22T04:30:43.163Z,25.40
2018-04-22T04:33:12.413Z,29.47
2018-04-22T04:35:40.795Z,26.70
2018-04-22T04:38:09.268Z,26.40
2018-04-22T04:40:37.670Z,26.47
2018-04-22T04:43:06.046Z,26.47
2018-04-22T04:45:34.525Z,25.20
2018-04-22T04:48:02.999Z,25.87
2018-04-22T04:50:31.389Z,26.70
2018-04-22T04:52:59.767Z,28.63
2018-04-22T04:55:28.207Z,26.60
2018-04-22T04:57:56.587Z,24.97
2018-04-22T05:00:24.996Z,28.47
2018-04-22T05:02:54.226Z,27.07
2018-04-22T05:05:22.750Z,26.70
2018-04-22T05:07:51.133Z,25.47
2018-04-22T05:10:19.518Z,25.33
2018-04-22T05:12:47.910Z,24.67
2018-04-22T05:15:16.373Z,25.77
2018-04-22T05:17:44.774Z,26.47
2018-04-22T05:20:13.176Z,26.10
2018-04-22T05:22:41.561Z,24.67
2018-04-22T05:25:10.741Z,24.30
2018-04-22T05:27:39.147Z,25.20
2018-04-22T05:30:08.306Z,24.00
2018-04-22T05:32:37.459Z,25.97
2018-04-22T05:35:06.668Z,24.57
2018-04-22T05:37:35.067Z,26.23
2018-04-22T05:40:03.480Z,25.23
2018-04-22T05:42:31.902Z,25.00
2018-04-22T05:45:01.059Z,25.40
2018-04-22T05:47:29.452Z,23.90
2018-04-22T05:49:57.837Z,25.67
2018-04-22T05:52:26.246Z,25.73
2018-04-22T05:54:54.661Z,26.30
2018-04-22T05:57:23.830Z,23.20
2018-04-22T05:59:52.326Z,23.30
2018-04-22T06:02:21.513Z,25.27
2018-04-22T06:04:49.901Z,24.03
2018-04-22T06:07:18.317Z,24.77
2018-04-22T06:09:46.697Z,23.87
2018-04-22T06:12:15.139Z,24.00
2018-04-22T06:14:43.527Z,23.87
2018-04-22T06:17:11.957Z,23.27
2018-04-22T06:19:40.346Z,22.47
2018-04-22T06:22:08.757Z,23.13
2018-04-22T06:24:37.169Z,24.40
2018-04-22T06:27:05.584Z,22.63
2018-04-22T06:29:34.043Z,23.23
2018-04-22T06:32:03.208Z,23.40
2018-04-22T06:34:31.629Z,25.47
2018-04-22T06:37:00.814Z,23.60
2018-04-22T06:39:29.208Z,22.77
2018-04-22T06:41:57.595Z,25.17
2018-04-22T06:44:25.979Z,23.37
2018-04-22T06:46:54.482Z,20.50
2018-04-22T06:49:23.657Z,24.17
2018-04-22T06:51:52.140Z,20.17
2018-04-22T06:54:20.551Z,19.60
2018-04-22T06:56:49.713Z,19.60
2018-04-22T06:59:18.119Z,19.30
2018-04-22T07:01:46.547Z,19.80
2018-04-22T07:04:14.945Z,19.77
2018-04-22T07:06:43.334Z,21.10
2018-04-22T07:09:11.737Z,21.50
2018-04-22T07:11:40.228Z,18.57
2018-04-22T07:14:08.651Z,20.13
2018-04-22T07:16:37.448Z,21.30
2018-04-22T07:19:05.943Z,21.30
2018-04-22T07:21:34.339Z,21.07
2018-04-22T07:24:02.867Z,22.63
2018-04-22T07:26:31.274Z,21.20
2018-04-22T07:29:00.440Z,21.07
2018-04-22T07:31:28.884Z,20.73
2018-04-22T07:33:57.295Z,18.13
2018-04-22T07:36:25.741Z,20.30
2018-04-22T07:38:54.154Z,18.70
2018-04-22T07:41:22.576Z,19.13
2018-04-22T07:43:51.863Z,19.07
2018-04-22T07:46:21.351Z,18.63
2018-04-22T07:48:49.812Z,17.37
2018-04-22T07:51:19.228Z,19.20
2018-04-22T07:53:47.687Z,17.13
2018-04-22T07:56:17.069Z,17.50
2018-04-22T07:58:46.278Z,16.87
2018-04-22T08:01:15.477Z,18.10
2018-04-22T08:03:43.869Z,17.47
2018-04-22T08:06:13.046Z,16.13
2018-04-22T08:08:41.457Z,15.60
2018-04-22T08:11:10.683Z,15.90
2018-04-22T08:13:39.504Z,16.10
2018-04-22T08:16:07.942Z,16.70
2018-04-22T08:18:37.180Z,16.63
2018-04-22T08:21:05.606Z,15.70
2018-04-22T08:23:34.013Z,15.83
2018-04-22T08:26:03.195Z,17.33
2018-04-22T08:28:32.399Z,14.40
2018-04-22T08:31:00.785Z,16.23
2018-04-22T08:33:29.958Z,14.47
2018-04-22T08:35:58.346Z,15.33
2018-04-22T08:38:26.762Z,13.90
2018-04-22T08:40:56.341Z,13.80
2018-04-22T08:43:24.740Z,15.60
2018-04-22T08:45:53.945Z,13.53
2018-04-22T08:48:22.367Z,15.13
2018-04-22T08:50:50.771Z,13.63
2018-04-22T08:53:19.193Z,13.20
2018-04-22T08:55:48.373Z,13.20
2018-04-22T08:58:16.802Z,12.23
2018-04-22T09:00:45.209Z,12.07
2018-04-22T09:03:13.628Z,13.10
2018-04-22T09:05:42.077Z,12.17
2018-04-22T09:08:10.581Z,11.07
2018-04-22T09:10:39.012Z,10.80
2018-04-22T09:13:08.508Z,13.23
2018-04-22T09:15:37.690Z,11.77
2018-04-22T09:18:06.193Z,13.00
2018-04-22T09:20:34.594Z,12.80
2018-04-22T09:23:03.746Z,12.00
2018-04-22T09:25:32.163Z,11.70
2018-04-22T09:28:00.698Z,16.03
2018-04-22T09:30:30.006Z,11.17
2018-04-22T09:32:58.432Z,10.50
2018-04-22T09:35:26.840Z,10.70
2018-04-22T09:37:56.035Z,10.20
2018-04-22T09:40:25.249Z,10.97
2018-04-22T09:42:54.450Z,14.40
2018-04-22T09:45:22.973Z,11.03
2018-04-22T09:47:52.385Z,10.43
2018-04-22T09:50:20.863Z,9.73
2018-04-22T09:52:49.306Z,10.20
2018-04-22T09:55:18.552Z,9.90
2018-04-22T09:57:47.061Z,13.00
2018-04-22T10:00:20.951Z,10.20
2018-04-22T10:02:49.407Z,11.73
2018-04-22T10:05:22.763Z,9.17
2018-04-22T10:07:51.182Z,11.40
2018-04-22T10:10:19.577Z,12.00
2018-04-22T10:12:47.973Z,8.90
2018-04-22T10:15:16.409Z,9.60
2018-04-22T10:17:45.591Z,9.13
2018-04-22T10:20:14.933Z,11.37
2018-04-22T10:22:44.154Z,7.97
2018-04-22T10:25:12.652Z,7.70
2018-04-22T10:27:41.046Z,14.23
2018-04-22T10:30:09.469Z,13.30
2018-04-22T10:32:37.901Z,12.70
2018-04-22T10:35:06.355Z,7.07
2018-04-22T10:37:35.510Z,12.30
2018-04-22T10:40:05.002Z,10.20
2018-04-22T10:42:33.447Z,9.50
2018-04-22T10:45:02.621Z,10.73
2018-04-22T10:47:31.058Z,9.70
2018-04-22T10:49:59.454Z,7.93
2018-04-22T10:52:28.748Z,8.00
2018-04-22T10:54:59.108Z,10.43
2018-04-22T10:57:27.606Z,7.43
2018-04-22T10:59:56.053Z,8.23
2018-04-22T11:02:24.517Z,9.17
2018-04-22T11:04:52.906Z,10.00
2018-04-22T11:07:21.339Z,12.60
2018-04-22T11:09:49.734Z,8.73
2018-04-22T11:12:18.428Z,9.70
2018-04-22T11:14:47.695Z,13.00
2018-04-22T11:17:16.095Z,9.13
2018-04-22T11:19:44.551Z,9.90
2018-04-22T11:22:12.955Z,8.40
2018-04-22T11:24:42.239Z,11.93
2018-04-22T11:27:11.019Z,8.33
2018-04-22T11:29:39.503Z,9.17
2018-04-22T11:32:09.619Z,13.77
2018-04-22T11:34:38.102Z,6.73
2018-04-22T11:37:06.814Z,10.80
2018-04-22T11:39:35.218Z,10.90
2018-04-22T11:42:03.636Z,8.33
2018-04-22T11:44:32.152Z,9.67
2018-04-22T11:47:00.550Z,9.17
2018-04-22T11:49:28.931Z,8.57
2018-04-22T11:51:57.368Z,14.67
2018-04-22T11:54:26.671Z,8.00
2018-04-22T11:56:55.877Z,9.07
2018-04-22T11:59:24.307Z,8.67
2018-04-22T12:01:52.725Z,8.23
2018-04-22T12:04:21.208Z,9.23
2018-04-22T12:06:49.638Z,8.23
2018-04-22T12:09:18.860Z,10.00
2018-04-22T12:11:47.265Z,9.30
2018-04-22T12:14:15.661Z,10.60
2018-04-22T12:16:44.058Z,9.90
2018-04-22T12:19:12.456Z,8.17
2018-04-22T12:21:41.625Z,10.83
2018-04-22T12:24:10.042Z,10.50
2018-04-22T12:26:38.481Z,5.23
2018-04-22T12:29:06.899Z,13.57
2018-04-22T12:31:37.609Z,9.23
2018-04-22T12:34:06.069Z,6.73
2018-04-22T12:36:34.534Z,5.90
2018-04-22T12:39:02.909Z,8.63
2018-04-22T12:41:37.823Z,7.47
2018-04-22T12:44:10.699Z,6.83
2018-04-22T12:46:39.123Z,9.23
2018-04-22T12:49:07.521Z,7.90
2018-04-22T12:51:35.914Z,10.33
2018-04-22T12:54:04.308Z,7.23
2018-04-22T12:56:32.711Z,10.00
2018-04-22T12:59:01.175Z,8.87
2018-04-22T13:01:29.562Z,9.00
2018-04-22T13:03:57.979Z,10.73
2018-04-22T13:06:27.140Z,11.20
2018-04-22T13:08:55.528Z,16.80
2018-04-22T13:11:23.979Z,44.37
2018-04-22T13:13:52.387Z,12.50
2018-04-22T13:16:20.848Z,25.97
2018-04-22T13:18:49.239Z,19.37
2018-04-22T13:21:18.222Z,25.47
2018-04-22T13:23:46.621Z,29.40
2018-04-22T13:26:15.027Z,31.47
2018-04-22T13:28:43.426Z,21.37
2018-04-22T13:31:11.846Z,17.30
2018-04-22T13:33:41.013Z,16.47
2018-04-22T13:36:09.398Z,14.00
2018-04-22T13:38:37.919Z,18.77
2018-04-22T13:41:06.327Z,14.67
2018-04-22T13:43:34.762Z,21.27
2018-04-22T13:46:03.188Z,17.43
2018-04-22T13:48:31.579Z,14.70
2018-04-22T13:50:59.981Z,16.73
2018-04-22T13:53:30.085Z,23.33
2018-04-22T13:55:58.515Z,17.23
2018-04-22T13:58:27.023Z,32.27
2018-04-22T14:00:56.182Z,17.67
2018-04-22T14:03:24.651Z,21.97
2018-04-22T14:05:53.040Z,42.67
2018-04-22T14:08:21.491Z,11.97
2018-04-22T14:10:50.657Z,26.53
2018-04-22T14:13:19.031Z,10.93
2018-04-22T14:15:47.462Z,56.87
2018-04-22T14:18:15.881Z,26.47
2018-04-22T14:20:44.262Z,23.87
2018-04-22T14:23:12.667Z,23.30
2018-04-22T14:25:41.084Z,15.10
2018-04-22T14:28:09.497Z,10.80
2018-04-22T14:30:37.901Z,10.57
2018-04-22T14:33:06.322Z,14.47
2018-04-22T14:35:35.493Z,14.63
2018-04-22T14:38:03.944Z,12.10
2018-04-22T14:40:32.275Z,12.60
2018-04-22T14:43:00.701Z,15.37
2018-04-22T14:45:46.908Z,19.27
2018-04-22T14:48:15.311Z,17.90
2018-04-22T14:50:43.798Z,23.20
2018-04-22T14:53:12.142Z,23.87
2018-04-22T14:55:40.656Z,16.37
2018-04-22T14:58:09.065Z,15.77
2018-04-22T15:00:37.473Z,29.83
2018-04-22T15:03:06.629Z,30.70
2018-04-22T15:05:35.035Z,28.40
2018-04-22T15:08:03.425Z,20.07
2018-04-22T15:10:31.842Z,22.20
2018-04-22T15:13:00.257Z,16.93
2018-04-22T15:15:28.667Z,12.90
2018-04-22T15:17:57.100Z,18.30
2018-04-22T15:20:25.583Z,19.03
2018-04-22T15:22:54.071Z,20.70
2018-04-22T15:25:22.459Z,15.97
2018-04-22T15:27:50.851Z,15.93
2018-04-22T15:30:19.271Z,18.37
2018-04-22T15:32:47.685Z,17.60
2018-04-22T15:35:16.874Z,39.63
2018-04-22T15:37:45.354Z,46.37
2018-04-22T15:40:13.752Z,23.00
2018-04-22T15:42:42.937Z,26.43
2018-04-22T15:45:11.356Z,19.17
2018-04-22T15:47:39.877Z,20.43
2018-04-22T15:50:08.330Z,17.33
2018-04-22T15:52:36.810Z,20.60
2018-04-22T15:55:05.209Z,15.07
2018-04-22T15:57:33.611Z,15.30
2018-04-22T16:00:02.859Z,17.67
2018-04-22T16:02:32.059Z,17.83
2018-04-22T16:05:00.461Z,18.83
2018-04-22T16:07:28.893Z,22.33
2018-04-22T16:09:57.305Z,20.23
2018-04-22T16:12:25.713Z,14.27
2018-04-22T16:14:54.116Z,20.10
2018-04-22T16:17:22.575Z,21.90
2018-04-22T16:19:51.766Z,14.07
2018-04-22T16:22:20.938Z,15.67
2018-04-22T16:24:49.394Z,18.87
2018-04-22T16:27:17.764Z,12.97
2018-04-22T16:29:46.200Z,8.37
2018-04-22T16:32:14.606Z,6.07
2018-04-22T16:34:43.843Z,8.00
2018-04-22T16:37:12.270Z,10.63
2018-04-22T16:39:40.728Z,13.60
2018-04-22T16:42:09.118Z,11.40
2018-04-22T16:44:37.559Z,8.23
2018-04-22T16:47:06.726Z,9.20
2018-04-22T16:49:35.137Z,10.30
2018-04-22T16:52:04.371Z,8.50
2018-04-22T16:54:32.766Z,10.67
2018-04-22T16:57:01.196Z,8.73
2018-04-22T16:59:30.389Z,9.00
2018-04-22T17:01:59.573Z,16.27
2018-04-22T17:04:27.980Z,15.20
2018-04-22T17:06:57.163Z,8.90
2018-04-22T17:09:25.580Z,9.97
2018-04-22T17:11:54.814Z,11.47
2018-04-22T17:14:23.226Z,10.27
2018-04-22T17:16:51.622Z,11.27
2018-04-22T17:19:20.058Z,12.03
2018-04-22T17:21:48.472Z,10.07
2018-04-22T17:24:17.654Z,13.53
2018-04-22T17:26:46.063Z,10.63
2018-04-22T17:29:14.489Z,9.20
2018-04-22T17:31:42.901Z,8.87
2018-04-22T17:34:11.288Z,13.73
2018-04-22T17:36:39.682Z,13.53
2018-04-22T17:39:08.134Z,13.23
2018-04-22T17:41:36.550Z,12.07
2018-04-22T17:44:04.969Z,10.40
2018-04-22T17:46:33.466Z,11.03
2018-04-22T17:49:02.630Z,16.70
2018-04-22T17:51:31.018Z,16.20
2018-04-22T17:53:59.429Z,10.40
2018-04-22T17:56:28.613Z,16.93
2018-04-22T17:58:57.042Z,8.97
2018-04-22T18:01:25.483Z,14.10
2018-04-22T18:03:54.214Z,10.70
2018-04-22T18:06:22.650Z,12.90
2018-04-22T18:08:51.046Z,11.80
2018-04-22T18:11:19.447Z,20.70
2018-04-22T18:13:48.641Z,13.73
2018-04-22T18:16:18.077Z,14.33
2018-04-22T18:18:46.561Z,11.03
2018-04-22T18:21:14.979Z,13.43
2018-04-22T18:23:43.397Z,14.50
2018-04-22T18:26:11.786Z,15.63
2018-04-22T18:28:41.897Z,13.40
2018-04-22T18:31:10.306Z,13.60
2018-04-22T18:33:39.578Z,12.20
2018-04-22T18:36:08.894Z,16.73
2018-04-22T18:38:37.332Z,8.80
2018-04-22T18:41:06.447Z,15.27
2018-04-22T18:43:34.854Z,9.30
2018-04-22T18:46:03.255Z,13.47
2018-04-22T18:48:32.454Z,10.17
2018-04-22T18:51:01.659Z,9.63
2018-04-22T18:53:30.074Z,28.17
2018-04-22T18:55:58.522Z,13.00
2018-04-22T18:58:27.007Z,11.63
2018-04-22T19:00:55.426Z,12.53
2018-04-22T19:03:24.121Z,12.20
2018-04-22T19:05:52.618Z,12.07
2018-04-22T19:08:21.108Z,12.03
2018-04-22T19:10:49.522Z,10.30
2018-04-22T19:13:17.949Z,18.83
2018-04-22T19:15:46.372Z,10.27
2018-04-22T19:18:14.790Z,8.47
2018-04-22T19:20:43.952Z,13.07
2018-04-22T19:23:12.347Z,8.17
2018-04-22T19:25:40.862Z,14.13
2018-04-22T19:28:10.027Z,15.70
2018-04-22T19:30:38.553Z,12.33
2018-04-22T19:33:07.780Z,10.37
2018-04-22T19:35:36.161Z,13.00
2018-04-22T19:38:04.594Z,10.00
2018-04-22T19:40:37.403Z,14.70
2018-04-22T19:43:06.633Z,15.47
2018-04-22T19:45:35.135Z,17.83
2018-04-22T19:48:03.666Z,11.40
2018-04-22T19:50:33.179Z,13.90
2018-04-22T19:53:01.659Z,12.20
2018-04-22T19:55:30.088Z,13.40
2018-04-22T19:58:00.105Z,12.60
2018-04-22T20:00:28.638Z,11.43
2018-04-22T20:02:59.629Z,13.93
2018-04-22T20:05:28.311Z,14.47
2018-04-22T20:07:56.736Z,10.03
2018-04-22T20:10:25.142Z,11.77
2018-04-22T20:12:53.590Z,10.57
2018-04-22T20:15:22.023Z,17.03
2018-04-22T20:17:50.420Z,14.37
2018-04-22T20:20:20.480Z,17.90
2018-04-22T20:22:48.950Z,15.27
2018-04-22T20:25:17.370Z,14.33
2018-04-22T20:27:48.136Z,15.90
2018-04-22T20:30:18.768Z,10.90
2018-04-22T20:32:50.423Z,15.97
2018-04-22T20:35:25.559Z,13.30
2018-04-22T20:37:53.975Z,9.67
2018-04-22T20:40:22.374Z,20.50
2018-04-22T20:42:50.806Z,11.30
2018-04-22T20:45:20.336Z,12.10
2018-04-22T20:47:49.519Z,14.50
2018-04-22T20:50:17.959Z,17.23
2018-04-22T20:52:46.406Z,10.90
2018-04-22T20:55:15.582Z,12.53
2018-04-22T20:57:44.319Z,13.00
2018-04-22T21:00:12.752Z,10.83
2018-04-22T21:02:41.250Z,14.60
2018-04-22T21:05:09.922Z,15.40
2018-04-22T21:07:38.321Z,16.83
2018-04-22T21:10:06.848Z,12.20
2018-04-22T21:12:35.241Z,14.37
2018-04-22T21:15:03.673Z,12.20
2018-04-22T21:17:32.094Z,14.83
2018-04-22T21:20:00.534Z,17.17
2018-04-22T21:22:28.950Z,22.80
2018-04-22T21:24:58.064Z,13.30
2018-04-22T21:27:26.561Z,17.10
2018-04-22T21:29:55.006Z,14.03
2018-04-22T21:32:23.425Z,18.10
2018-04-22T21:34:51.835Z,17.73
2018-04-22T21:37:20.244Z,50.20
2018-04-22T21:39:48.717Z,18.13
2018-04-22T21:42:17.138Z,19.73
2018-04-22T21:44:46.335Z,17.77
2018-04-22T21:47:15.530Z,15.43
2018-04-22T21:49:43.909Z,13.80
2018-04-22T21:52:12.318Z,18.50
2018-04-22T21:54:41.478Z,17.10
2018-04-22T21:57:09.874Z,14.17
2018-04-22T21:59:38.298Z,18.40
2018-04-22T22:02:06.675Z,11.93
2018-04-22T22:04:35.073Z,12.23
2018-04-22T22:07:03.551Z,13.47
2018-04-22T22:09:31.937Z,14.00
2018-04-22T22:12:00.350Z,11.73
2018-04-22T22:14:28.769Z,13.87
2018-04-22T22:16:57.921Z,16.77
2018-04-22T22:19:26.305Z,13.00
2018-04-22T22:21:54.738Z,18.53
2018-04-22T22:24:23.969Z,16.37
2018-04-22T22:26:52.361Z,14.17
2018-04-22T22:29:20.799Z,14.30
2018-04-22T22:31:49.234Z,11.30
2018-04-22T22:34:17.636Z,16.23
2018-04-22T22:36:46.366Z,13.67
2018-04-22T22:39:14.980Z,14.13
2018-04-22T22:41:43.435Z,12.50
2018-04-22T22:44:12.636Z,14.20
2018-04-22T22:46:41.022Z,19.40
2018-04-22T22:49:10.204Z,19.77
2018-04-22T22:51:38.660Z,11.97
2018-04-22T22:54:07.146Z,12.00
2018-04-22T22:56:35.565Z,17.47
2018-04-22T22:59:03.974Z,15.97
2018-04-22T23:01:33.120Z,13.20
2018-04-22T23:04:01.513Z,12.93
2018-04-22T23:06:30.650Z,11.53
2018-04-22T23:08:59.134Z,13.90
2018-04-22T23:11:28.304Z,14.80
2018-04-22T23:13:57.535Z,17.77
2018-04-22T23:16:26.701Z,13.20
2018-04-22T23:18:55.088Z,13.00
2018-04-22T23:21:23.529Z,12.33
2018-04-22T23:23:51.922Z,18.90
2018-04-22T23:26:20.326Z,11.90
2018-04-22T23:28:48.717Z,13.73
2018-04-22T23:31:17.908Z,12.60
2018-04-22T23:33:46.309Z,13.37
2018-04-22T23:36:14.686Z,12.23
2018-04-22T23:38:43.091Z,16.73
2018-04-22T23:41:11.543Z,13.83
2018-04-22T23:43:39.957Z,21.37
2018-04-22T23:46:08.372Z,21.17
2018-04-22T23:48:37.524Z,13.73
2018-04-22T23:51:05.931Z,16.13
2018-04-22T23:53:34.324Z,14.83
2018-04-22T23:56:03.471Z,13.10
2018-04-22T23:58:31.853Z,16.90
